sensor_id;sensor_type;location;lat;lon;timestamp;pressure;altitude;pressure_sealevel;temperature;humidity
18918;BME280;9591;52.742;13.650;2023-06-01T00:00:44;101339.13;;;14.76;96.66
18918;BME280;9591;52.742;13.650;2023-06-01T00:03:32;101338.09;;;14.80;94.80
18918;BME280;9591;52.742;13.650;2023-06-01T00:06:18;101343.81;;;14.71;96.16
18918;BME280;9591;52.742;13.650;2023-06-01T00:09:07;101332.41;;;14.67;96.69
18918;BME280;9591;52.742;13.650;2023-06-01T00:11:54;101332.47;;;14.66;96.16
18918;BME280;9591;52.742;13.650;2023-06-01T00:14:41;101333.22;;;14.69;95.89
18918;BME280;9591;52.742;13.650;2023-06-01T00:17:28;101332.72;;;14.60;96.61
18918;BME280;9591;52.742;13.650;2023-06-01T00:20:16;101333.69;;;14.57;95.57
18918;BME280;9591;52.742;13.650;2023-06-01T00:23:03;101336.91;;;14.43;96.37
18918;BME280;9591;52.742;13.650;2023-06-01T00:25:52;101337.34;;;14.55;95.01
18918;BME280;9591;52.742;13.650;2023-06-01T00:28:39;101339.25;;;14.28;98.27
18918;BME280;9591;52.742;13.650;2023-06-01T00:31:26;101338.63;;;14.45;96.44
18918;BME280;9591;52.742;13.650;2023-06-01T00:34:12;101341.63;;;14.35;97.41
18918;BME280;9591;52.742;13.650;2023-06-01T00:36:59;101338.44;;;14.26;97.63
18918;BME280;9591;52.742;13.650;2023-06-01T00:39:46;101342.53;;;14.34;97.02
18918;BME280;9591;52.742;13.650;2023-06-01T00:42:34;101327.38;;;14.36;97.27
18918;BME280;9591;52.742;13.650;2023-06-01T00:45:21;101329.34;;;14.31;98.38
18918;BME280;9591;52.742;13.650;2023-06-01T00:48:09;101336.53;;;14.29;99.04
18918;BME280;9591;52.742;13.650;2023-06-01T00:50:56;101338.03;;;14.36;97.94
18918;BME280;9591;52.742;13.650;2023-06-01T00:53:45;101326.91;;;14.25;99.70
18918;BME280;9591;52.742;13.650;2023-06-01T00:56:31;101330.56;;;14.23;100.00
18918;BME280;9591;52.742;13.650;2023-06-01T00:59:22;101331.66;;;14.17;99.74
18918;BME280;9591;52.742;13.650;2023-06-01T01:02:09;101327.59;;;14.07;100.00
18918;BME280;9591;52.742;13.650;2023-06-01T01:05:01;101322.66;;;13.96;99.67
18918;BME280;9591;52.742;13.650;2023-06-01T01:07:53;101321.22;;;13.88;99.81
18918;BME280;9591;52.742;13.650;2023-06-01T01:10:45;101333.25;;;13.74;100.00
18918;BME280;9591;52.742;13.650;2023-06-01T01:13:40;101332.81;;;13.62;100.00
18918;BME280;9591;52.742;13.650;2023-06-01T01:16:31;101326.78;;;13.57;100.00
18918;BME280;9591;52.742;13.650;2023-06-01T01:19:33;101334.31;;;13.44;100.00
18918;BME280;9591;52.742;13.650;2023-06-01T01:22:47;101332.13;;;13.30;100.00
18918;BME280;9591;52.742;13.650;2023-06-01T01:26:12;101324.56;;;13.18;100.00
18918;BME280;9591;52.742;13.650;2023-06-01T01:29:05;101323.16;;;13.06;100.00
18918;BME280;9591;52.742;13.650;2023-06-01T01:31:54;101327.25;;;12.90;100.00
18918;BME280;9591;52.742;13.650;2023-06-01T01:34:43;101327.50;;;12.83;100.00
18918;BME280;9591;52.742;13.650;2023-06-01T01:37:32;101324.03;;;12.80;100.00
18918;BME280;9591;52.742;13.650;2023-06-01T01:40:19;101320.84;;;12.69;100.00
18918;BME280;9591;52.742;13.650;2023-06-01T01:43:06;101319.34;;;12.61;100.00
18918;BME280;9591;52.742;13.650;2023-06-01T01:45:57;101308.41;;;12.42;100.00
18918;BME280;9591;52.742;13.650;2023-06-01T01:48:52;101284.31;;;12.19;100.00
18918;BME280;9591;52.742;13.650;2023-06-01T01:51:46;101316.59;;;12.34;100.00
18918;BME280;9591;52.742;13.650;2023-06-01T01:54:37;101321.81;;;12.37;100.00
18918;BME280;9591;52.742;13.650;2023-06-01T01:57:26;101319.25;;;12.34;100.00
18918;BME280;9591;52.742;13.650;2023-06-01T02:00:14;101313.56;;;12.46;100.00
18918;BME280;9591;52.742;13.650;2023-06-01T02:03:02;101309.28;;;12.42;100.00
18918;BME280;9591;52.742;13.650;2023-06-01T02:05:50;101309.03;;;12.50;100.00
18918;BME280;9591;52.742;13.650;2023-06-01T02:08:37;101306.63;;;12.42;100.00
18918;BME280;9591;52.742;13.650;2023-06-01T02:11:25;101303.03;;;12.43;100.00
18918;BME280;9591;52.742;13.650;2023-06-01T02:14:11;101302.41;;;12.35;100.00
18918;BME280;9591;52.742;13.650;2023-06-01T02:16:58;101301.81;;;12.26;100.00
18918;BME280;9591;52.742;13.650;2023-06-01T02:19:47;101295.03;;;12.15;100.00
18918;BME280;9591;52.742;13.650;2023-06-01T02:22:34;101293.47;;;12.10;100.00
18918;BME280;9591;52.742;13.650;2023-06-01T02:25:21;101296.88;;;12.13;100.00
18918;BME280;9591;52.742;13.650;2023-06-01T02:28:07;101288.06;;;12.13;100.00
18918;BME280;9591;52.742;13.650;2023-06-01T02:30:55;101289.78;;;12.14;100.00
18918;BME280;9591;52.742;13.650;2023-06-01T02:33:42;101289.06;;;12.09;100.00
18918;BME280;9591;52.742;13.650;2023-06-01T02:36:31;101287.59;;;11.99;100.00
18918;BME280;9591;52.742;13.650;2023-06-01T02:39:18;101291.06;;;12.01;100.00
18918;BME280;9591;52.742;13.650;2023-06-01T02:42:05;101282.38;;;11.96;100.00
18918;BME280;9591;52.742;13.650;2023-06-01T02:44:53;101287.25;;;12.11;100.00
18918;BME280;9591;52.742;13.650;2023-06-01T02:47:39;101284.84;;;12.02;100.00
18918;BME280;9591;52.742;13.650;2023-06-01T02:50:26;101285.94;;;11.95;100.00
18918;BME280;9591;52.742;13.650;2023-06-01T02:53:14;101282.63;;;12.16;100.00
18918;BME280;9591;52.742;13.650;2023-06-01T02:56:01;101278.41;;;12.10;100.00
18918;BME280;9591;52.742;13.650;2023-06-01T02:59:04;101286.56;;;12.04;100.00
18918;BME280;9591;52.742;13.650;2023-06-01T03:01:56;101281.97;;;12.09;100.00
18918;BME280;9591;52.742;13.650;2023-06-01T03:04:43;101285.53;;;12.08;100.00
18918;BME280;9591;52.742;13.650;2023-06-01T03:07:31;101282.56;;;11.90;100.00
18918;BME280;9591;52.742;13.650;2023-06-01T03:10:28;101272.84;;;11.89;100.00
18918;BME280;9591;52.742;13.650;2023-06-01T03:13:28;101279.63;;;11.99;100.00
18918;BME280;9591;52.742;13.650;2023-06-01T03:16:15;101278.53;;;12.06;100.00
18918;BME280;9591;52.742;13.650;2023-06-01T03:19:17;101281.28;;;12.03;100.00
18918;BME280;9591;52.742;13.650;2023-06-01T03:22:08;101278.44;;;12.09;100.00
18918;BME280;9591;52.742;13.650;2023-06-01T03:24:55;101284.13;;;11.97;100.00
18918;BME280;9591;52.742;13.650;2023-06-01T03:27:51;101272.75;;;11.92;100.00
18918;BME280;9591;52.742;13.650;2023-06-01T03:30:37;101278.44;;;12.09;100.00
18918;BME280;9591;52.742;13.650;2023-06-01T03:33:24;101278.22;;;12.15;100.00
18918;BME280;9591;52.742;13.650;2023-06-01T03:36:11;101282.59;;;12.18;100.00
18918;BME280;9591;52.742;13.650;2023-06-01T03:38:58;101287.66;;;12.25;100.00
18918;BME280;9591;52.742;13.650;2023-06-01T03:41:45;101282.25;;;12.28;100.00
18918;BME280;9591;52.742;13.650;2023-06-01T03:44:34;101291.09;;;12.29;100.00
18918;BME280;9591;52.742;13.650;2023-06-01T03:47:21;101289.34;;;12.28;100.00
18918;BME280;9591;52.742;13.650;2023-06-01T03:50:09;101287.44;;;12.33;100.00
18918;BME280;9591;52.742;13.650;2023-06-01T03:52:56;101283.28;;;12.24;100.00
18918;BME280;9591;52.742;13.650;2023-06-01T03:55:43;101290.63;;;12.44;100.00
18918;BME280;9591;52.742;13.650;2023-06-01T03:58:41;101287.41;;;12.62;100.00
18918;BME280;9591;52.742;13.650;2023-06-01T04:01:31;101281.94;;;12.67;100.00
18918;BME280;9591;52.742;13.650;2023-06-01T04:04:24;101284.16;;;12.80;100.00
18918;BME280;9591;52.742;13.650;2023-06-01T04:07:13;101281.25;;;13.13;100.00
18918;BME280;9591;52.742;13.650;2023-06-01T04:10:05;101277.03;;;13.59;100.00
18918;BME280;9591;52.742;13.650;2023-06-01T04:12:52;101279.31;;;13.93;100.00
18918;BME280;9591;52.742;13.650;2023-06-01T04:15:43;101280.81;;;14.47;100.00
18918;BME280;9591;52.742;13.650;2023-06-01T04:18:34;101279.06;;;14.89;100.00
18918;BME280;9591;52.742;13.650;2023-06-01T04:21:20;101285.50;;;15.26;100.00
18918;BME280;9591;52.742;13.650;2023-06-01T04:24:08;101285.38;;;15.49;100.00
18918;BME280;9591;52.742;13.650;2023-06-01T04:26:55;101278.84;;;15.56;100.00
18918;BME280;9591;52.742;13.650;2023-06-01T04:29:42;101283.13;;;15.60;100.00
18918;BME280;9591;52.742;13.650;2023-06-01T04:32:30;101288.13;;;15.48;100.00
18918;BME280;9591;52.742;13.650;2023-06-01T04:35:19;101287.66;;;15.38;100.00
18918;BME280;9591;52.742;13.650;2023-06-01T04:38:06;101292.84;;;15.21;100.00
18918;BME280;9591;52.742;13.650;2023-06-01T04:40:55;101298.44;;;15.15;100.00
18918;BME280;9591;52.742;13.650;2023-06-01T04:43:41;101296.63;;;15.15;100.00
18918;BME280;9591;52.742;13.650;2023-06-01T04:46:29;101295.50;;;15.21;100.00
18918;BME280;9591;52.742;13.650;2023-06-01T04:49:17;101300.16;;;15.16;100.00
18918;BME280;9591;52.742;13.650;2023-06-01T04:52:06;101293.38;;;15.29;100.00
18918;BME280;9591;52.742;13.650;2023-06-01T04:54:53;101278.53;;;15.01;100.00
18918;BME280;9591;52.742;13.650;2023-06-01T04:57:40;101294.16;;;15.11;100.00
18918;BME280;9591;52.742;13.650;2023-06-01T05:00:28;101293.41;;;15.07;100.00
18918;BME280;9591;52.742;13.650;2023-06-01T05:03:15;101297.28;;;15.00;100.00
18918;BME280;9591;52.742;13.650;2023-06-01T05:06:03;101294.66;;;14.98;100.00
18918;BME280;9591;52.742;13.650;2023-06-01T05:08:51;101296.53;;;14.96;100.00
18918;BME280;9591;52.742;13.650;2023-06-01T05:11:38;101296.41;;;14.77;100.00
18918;BME280;9591;52.742;13.650;2023-06-01T05:14:25;101298.22;;;14.77;100.00
18918;BME280;9591;52.742;13.650;2023-06-01T05:17:11;101295.56;;;14.77;100.00
18918;BME280;9591;52.742;13.650;2023-06-01T05:19:58;101295.97;;;14.88;100.00
18918;BME280;9591;52.742;13.650;2023-06-01T05:22:45;101292.63;;;14.83;100.00
18918;BME280;9591;52.742;13.650;2023-06-01T05:25:33;101294.94;;;14.92;100.00
18918;BME280;9591;52.742;13.650;2023-06-01T05:28:20;101293.19;;;14.91;100.00
18918;BME280;9591;52.742;13.650;2023-06-01T05:31:07;101296.47;;;14.98;100.00
18918;BME280;9591;52.742;13.650;2023-06-01T05:34:03;101295.31;;;14.83;100.00
18918;BME280;9591;52.742;13.650;2023-06-01T05:36:50;101286.78;;;14.95;100.00
18918;BME280;9591;52.742;13.650;2023-06-01T05:39:37;101293.75;;;14.99;100.00
18918;BME280;9591;52.742;13.650;2023-06-01T05:42:26;101288.03;;;15.08;100.00
18918;BME280;9591;52.742;13.650;2023-06-01T05:45:13;101292.28;;;15.13;100.00
18918;BME280;9591;52.742;13.650;2023-06-01T05:48:00;101286.78;;;15.17;100.00
18918;BME280;9591;52.742;13.650;2023-06-01T05:50:48;101300.31;;;15.33;100.00
18918;BME280;9591;52.742;13.650;2023-06-01T05:53:35;101300.66;;;15.46;100.00
18918;BME280;9591;52.742;13.650;2023-06-01T05:56:23;101302.06;;;15.54;100.00
18918;BME280;9591;52.742;13.650;2023-06-01T05:59:12;101307.34;;;15.56;100.00
18918;BME280;9591;52.742;13.650;2023-06-01T06:01:59;101299.72;;;15.67;100.00
18918;BME280;9591;52.742;13.650;2023-06-01T06:04:46;101303.94;;;15.72;100.00
18918;BME280;9591;52.742;13.650;2023-06-01T06:07:33;101290.09;;;15.83;100.00
18918;BME280;9591;52.742;13.650;2023-06-01T06:10:20;101292.28;;;15.94;100.00
18918;BME280;9591;52.742;13.650;2023-06-01T06:13:07;101296.28;;;16.04;100.00
18918;BME280;9591;52.742;13.650;2023-06-01T06:15:55;101298.63;;;15.91;98.34
18918;BME280;9591;52.742;13.650;2023-06-01T06:18:43;101292.06;;;15.98;99.16
18918;BME280;9591;52.742;13.650;2023-06-01T06:21:45;101292.75;;;16.22;97.87
18918;BME280;9591;52.742;13.650;2023-06-01T06:24:31;101289.50;;;16.34;97.48
18918;BME280;9591;52.742;13.650;2023-06-01T06:27:18;101288.94;;;16.28;96.04
18918;BME280;9591;52.742;13.650;2023-06-01T06:30:06;101283.50;;;16.29;94.93
18918;BME280;9591;52.742;13.650;2023-06-01T06:32:57;101283.44;;;16.12;95.48
18918;BME280;9591;52.742;13.650;2023-06-01T06:35:45;101206.13;;;15.70;93.93
18918;BME280;9591;52.742;13.650;2023-06-01T06:38:33;101280.97;;;16.26;96.11
18918;BME280;9591;52.742;13.650;2023-06-01T06:41:20;101288.53;;;16.54;94.86
18918;BME280;9591;52.742;13.650;2023-06-01T06:44:08;101283.13;;;16.75;93.59
18918;BME280;9591;52.742;13.650;2023-06-01T06:46:58;101282.88;;;16.79;89.99
18918;BME280;9591;52.742;13.650;2023-06-01T06:49:49;101260.72;;;16.94;91.12
18918;BME280;9591;52.742;13.650;2023-06-01T06:52:37;101283.53;;;17.36;90.87
18918;BME280;9591;52.742;13.650;2023-06-01T06:55:25;101285.28;;;17.72;86.77
18918;BME280;9591;52.742;13.650;2023-06-01T06:58:13;101282.97;;;17.81;86.08
18918;BME280;9591;52.742;13.650;2023-06-01T07:01:00;101288.66;;;17.75;84.05
18918;BME280;9591;52.742;13.650;2023-06-01T07:03:51;101286.59;;;17.80;83.82
18918;BME280;9591;52.742;13.650;2023-06-01T07:06:40;101276.50;;;17.85;85.28
18918;BME280;9591;52.742;13.650;2023-06-01T07:09:28;101283.75;;;17.83;84.85
18918;BME280;9591;52.742;13.650;2023-06-01T07:12:14;101281.03;;;17.67;87.37
18918;BME280;9591;52.742;13.650;2023-06-01T07:15:02;101265.75;;;17.69;85.54
18918;BME280;9591;52.742;13.650;2023-06-01T07:17:49;101278.09;;;17.55;86.40
18918;BME280;9591;52.742;13.650;2023-06-01T07:20:36;101277.22;;;17.54;84.29
18918;BME280;9591;52.742;13.650;2023-06-01T07:23:24;101283.38;;;17.39;84.40
18918;BME280;9591;52.742;13.650;2023-06-01T07:26:12;101278.19;;;17.36;84.36
18918;BME280;9591;52.742;13.650;2023-06-01T07:28:59;101278.97;;;17.73;84.97
18918;BME280;9591;52.742;13.650;2023-06-01T07:31:46;101279.81;;;17.90;82.92
18918;BME280;9591;52.742;13.650;2023-06-01T07:34:32;101276.03;;;18.10;80.07
18918;BME280;9591;52.742;13.650;2023-06-01T07:37:19;101280.72;;;18.07;79.20
18918;BME280;9591;52.742;13.650;2023-06-01T07:40:09;101275.22;;;17.92;81.31
18918;BME280;9591;52.742;13.650;2023-06-01T07:42:58;101276.47;;;18.02;79.67
18918;BME280;9591;52.742;13.650;2023-06-01T07:45:45;101275.00;;;18.13;82.85
18918;BME280;9591;52.742;13.650;2023-06-01T07:48:32;101280.19;;;18.16;76.99
18918;BME280;9591;52.742;13.650;2023-06-01T07:51:23;101278.59;;;17.96;79.02
18918;BME280;9591;52.742;13.650;2023-06-01T07:54:11;101275.88;;;17.63;79.13
18918;BME280;9591;52.742;13.650;2023-06-01T07:57:00;101275.22;;;17.92;79.69
18918;BME280;9591;52.742;13.650;2023-06-01T07:59:48;101266.66;;;17.86;76.46
18918;BME280;9591;52.742;13.650;2023-06-01T08:02:35;101270.72;;;17.93;79.26
18918;BME280;9591;52.742;13.650;2023-06-01T08:05:22;101259.25;;;18.07;77.67
18918;BME280;9591;52.742;13.650;2023-06-01T08:08:10;101267.88;;;17.96;78.74
18918;BME280;9591;52.742;13.650;2023-06-01T08:10:56;101258.06;;;18.12;77.08
18918;BME280;9591;52.742;13.650;2023-06-01T08:13:45;101263.97;;;17.86;74.82
18918;BME280;9591;52.742;13.650;2023-06-01T08:16:31;101271.53;;;17.95;77.36
18918;BME280;9591;52.742;13.650;2023-06-01T08:19:18;101267.13;;;18.10;74.78
18918;BME280;9591;52.742;13.650;2023-06-01T08:22:05;101263.22;;;17.99;76.54
18918;BME280;9591;52.742;13.650;2023-06-01T08:24:53;101267.91;;;18.12;77.45
18918;BME280;9591;52.742;13.650;2023-06-01T08:27:40;101265.50;;;18.07;77.47
18918;BME280;9591;52.742;13.650;2023-06-01T08:30:29;101247.59;;;18.08;74.92
18918;BME280;9591;52.742;13.650;2023-06-01T08:33:16;101270.31;;;18.32;73.57
18918;BME280;9591;52.742;13.650;2023-06-01T08:36:03;101257.44;;;18.39;72.05
18918;BME280;9591;52.742;13.650;2023-06-01T08:38:53;101262.28;;;18.48;71.03
18918;BME280;9591;52.742;13.650;2023-06-01T08:41:45;101259.63;;;18.63;72.17
18918;BME280;9591;52.742;13.650;2023-06-01T08:44:37;101265.75;;;18.81;71.99
18918;BME280;9591;52.742;13.650;2023-06-01T08:47:26;101253.03;;;18.85;71.31
18918;BME280;9591;52.742;13.650;2023-06-01T08:50:15;101246.09;;;19.11;70.35
18918;BME280;9591;52.742;13.650;2023-06-01T08:53:03;101250.75;;;18.93;69.22
18918;BME280;9591;52.742;13.650;2023-06-01T08:55:51;101248.53;;;18.85;69.30
18918;BME280;9591;52.742;13.650;2023-06-01T08:58:39;101238.22;;;18.93;71.02
18918;BME280;9591;52.742;13.650;2023-06-01T09:01:27;101243.41;;;18.96;71.22
18918;BME280;9591;52.742;13.650;2023-06-01T09:04:16;101246.91;;;19.27;70.96
18918;BME280;9591;52.742;13.650;2023-06-01T09:07:06;101236.44;;;19.52;67.00
18918;BME280;9591;52.742;13.650;2023-06-01T09:09:54;101229.91;;;19.56;69.09
18918;BME280;9591;52.742;13.650;2023-06-01T09:12:51;101234.44;;;19.70;67.14
18918;BME280;9591;52.742;13.650;2023-06-01T09:15:50;101230.69;;;19.73;67.97
18918;BME280;9591;52.742;13.650;2023-06-01T09:18:50;101231.06;;;19.67;65.28
18918;BME280;9591;52.742;13.650;2023-06-01T09:21:41;101230.69;;;19.73;67.69
18918;BME280;9591;52.742;13.650;2023-06-01T09:24:55;101228.28;;;19.82;67.66
18918;BME280;9591;52.742;13.650;2023-06-01T09:27:48;101221.19;;;19.81;65.40
18918;BME280;9591;52.742;13.650;2023-06-01T09:30:41;101232.72;;;19.83;64.84
18918;BME280;9591;52.742;13.650;2023-06-01T09:33:28;101236.81;;;20.03;61.29
18918;BME280;9591;52.742;13.650;2023-06-01T09:36:23;101231.41;;;20.17;60.48
18918;BME280;9591;52.742;13.650;2023-06-01T09:39:14;101228.91;;;20.14;60.70
18918;BME280;9591;52.742;13.650;2023-06-01T09:42:01;101228.69;;;20.32;61.98
18918;BME280;9591;52.742;13.650;2023-06-01T09:44:48;101209.09;;;20.44;58.55
18918;BME280;9591;52.742;13.650;2023-06-01T09:47:35;101214.84;;;20.52;59.93
18918;BME280;9591;52.742;13.650;2023-06-01T09:50:35;101209.25;;;20.55;61.40
18918;BME280;9591;52.742;13.650;2023-06-01T09:53:22;101216.75;;;20.77;60.05
18918;BME280;9591;52.742;13.650;2023-06-01T09:56:10;101216.22;;;20.84;59.92
18918;BME280;9591;52.742;13.650;2023-06-01T09:58:58;101211.94;;;20.94;59.82
18918;BME280;9591;52.742;13.650;2023-06-01T10:01:49;101207.72;;;20.90;59.53
18918;BME280;9591;52.742;13.650;2023-06-01T10:04:39;101204.41;;;21.00;60.38
18918;BME280;9591;52.742;13.650;2023-06-01T10:07:27;101193.22;;;21.06;59.55
18918;BME280;9591;52.742;13.650;2023-06-01T10:10:14;101200.13;;;21.10;58.31
18918;BME280;9591;52.742;13.650;2023-06-01T10:13:03;101201.34;;;21.31;57.96
18918;BME280;9591;52.742;13.650;2023-06-01T10:15:53;101201.34;;;21.31;57.66
18918;BME280;9591;52.742;13.650;2023-06-01T10:18:41;101194.38;;;21.41;57.10
18918;BME280;9591;52.742;13.650;2023-06-01T10:21:28;101180.25;;;21.25;59.25
18918;BME280;9591;52.742;13.650;2023-06-01T10:24:17;101181.31;;;21.35;57.72
18918;BME280;9591;52.742;13.650;2023-06-01T10:27:10;101186.06;;;21.32;60.51
18918;BME280;9591;52.742;13.650;2023-06-01T10:30:01;101179.00;;;21.16;60.20
18918;BME280;9591;52.742;13.650;2023-06-01T10:32:49;101174.63;;;21.28;59.14
18918;BME280;9591;52.742;13.650;2023-06-01T10:36:00;101175.19;;;21.46;57.78
18918;BME280;9591;52.742;13.650;2023-06-01T10:38:48;101174.63;;;21.66;55.99
18918;BME280;9591;52.742;13.650;2023-06-01T10:41:35;101180.63;;;21.70;54.73
18918;BME280;9591;52.742;13.650;2023-06-01T10:44:45;101183.19;;;21.84;54.08
18918;BME280;9591;52.742;13.650;2023-06-01T10:47:48;101174.31;;;21.58;56.88
18918;BME280;9591;52.742;13.650;2023-06-01T10:50:35;101170.06;;;21.67;56.13
18918;BME280;9591;52.742;13.650;2023-06-01T10:53:27;101163.03;;;21.77;55.31
18918;BME280;9591;52.742;13.650;2023-06-01T10:56:21;101159.28;;;21.67;54.28
18918;BME280;9591;52.742;13.650;2023-06-01T10:59:10;101161.00;;;21.68;56.74
18918;BME280;9591;52.742;13.650;2023-06-01T11:02:06;101156.84;;;21.64;55.98
18918;BME280;9591;52.742;13.650;2023-06-01T11:04:54;101161.09;;;21.79;56.90
18918;BME280;9591;52.742;13.650;2023-06-01T11:07:40;101160.34;;;21.77;56.79
18918;BME280;9591;52.742;13.650;2023-06-01T11:10:56;101157.53;;;21.78;53.35
18918;BME280;9591;52.742;13.650;2023-06-01T11:14:05;101150.81;;;21.97;54.18
18918;BME280;9591;52.742;13.650;2023-06-01T11:16:54;101147.78;;;22.01;55.71
18918;BME280;9591;52.742;13.650;2023-06-01T11:19:41;101149.59;;;22.13;54.52
18918;BME280;9591;52.742;13.650;2023-06-01T11:22:35;101146.22;;;22.22;53.73
18918;BME280;9591;52.742;13.650;2023-06-01T11:25:24;101143.25;;;22.14;53.92
18918;BME280;9591;52.742;13.650;2023-06-01T11:28:13;101138.13;;;22.22;53.58
18918;BME280;9591;52.742;13.650;2023-06-01T11:31:02;101135.28;;;22.37;52.17
18918;BME280;9591;52.742;13.650;2023-06-01T11:33:51;101130.28;;;22.43;53.85
18918;BME280;9591;52.742;13.650;2023-06-01T11:36:41;101132.22;;;22.41;52.71
18918;BME280;9591;52.742;13.650;2023-06-01T11:39:29;101125.81;;;22.66;54.14
18918;BME280;9591;52.742;13.650;2023-06-01T11:42:17;101114.03;;;22.67;50.35
18918;BME280;9591;52.742;13.650;2023-06-01T11:45:05;101111.34;;;22.78;53.60
18918;BME280;9591;52.742;13.650;2023-06-01T11:47:52;101109.38;;;22.69;50.94
18918;BME280;9591;52.742;13.650;2023-06-01T11:50:46;101103.50;;;22.75;51.11
18918;BME280;9591;52.742;13.650;2023-06-01T11:53:36;101104.81;;;22.94;49.26
18918;BME280;9591;52.742;13.650;2023-06-01T11:56:32;101110.44;;;22.91;50.86
18918;BME280;9591;52.742;13.650;2023-06-01T11:59:21;101107.25;;;22.97;51.56
18918;BME280;9591;52.742;13.650;2023-06-01T12:02:18;101097.84;;;23.13;50.94
18918;BME280;9591;52.742;13.650;2023-06-01T12:05:09;101101.28;;;23.15;51.29
18918;BME280;9591;52.742;13.650;2023-06-01T12:07:59;101093.56;;;23.33;50.03
18918;BME280;9591;52.742;13.650;2023-06-01T12:10:47;101089.84;;;23.45;50.31
18918;BME280;9591;52.742;13.650;2023-06-01T12:13:35;101094.75;;;23.40;49.94
18918;BME280;9591;52.742;13.650;2023-06-01T12:16:22;101093.19;;;23.38;47.65
18918;BME280;9591;52.742;13.650;2023-06-01T12:19:09;101099.53;;;23.48;48.59
18918;BME280;9591;52.742;13.650;2023-06-01T12:21:58;101103.63;;;23.65;47.66
18918;BME280;9591;52.742;13.650;2023-06-01T12:24:45;101090.09;;;23.76;48.25
18918;BME280;9591;52.742;13.650;2023-06-01T12:27:32;101086.16;;;23.80;47.52
18918;BME280;9591;52.742;13.650;2023-06-01T12:30:23;101082.00;;;23.65;49.12
18918;BME280;9591;52.742;13.650;2023-06-01T12:33:30;101083.56;;;23.78;49.14
18918;BME280;9591;52.742;13.650;2023-06-01T12:36:31;101062.56;;;23.82;48.48
18918;BME280;9591;52.742;13.650;2023-06-01T12:39:31;101048.25;;;23.91;48.39
18918;BME280;9591;52.742;13.650;2023-06-01T12:42:33;101069.25;;;24.10;47.28
18918;BME280;9591;52.742;13.650;2023-06-01T12:45:20;101074.03;;;24.06;46.88
18918;BME280;9591;52.742;13.650;2023-06-01T12:48:08;101065.47;;;23.90;45.80
18918;BME280;9591;52.742;13.650;2023-06-01T12:50:55;101060.81;;;23.81;46.64
18918;BME280;9591;52.742;13.650;2023-06-01T12:53:43;101055.34;;;23.60;46.20
18918;BME280;9591;52.742;13.650;2023-06-01T12:56:30;101021.28;;;23.69;48.71
18918;BME280;9591;52.742;13.650;2023-06-01T12:59:20;101059.41;;;24.09;47.11
18918;BME280;9591;52.742;13.650;2023-06-01T13:02:07;101065.59;;;24.32;45.98
18918;BME280;9591;52.742;13.650;2023-06-01T13:04:55;101056.47;;;24.33;46.19
18918;BME280;9591;52.742;13.650;2023-06-01T13:07:42;101062.59;;;24.14;47.33
18918;BME280;9591;52.742;13.650;2023-06-01T13:10:29;101054.84;;;24.09;46.82
18918;BME280;9591;52.742;13.650;2023-06-01T13:13:16;101057.78;;;24.17;45.49
18918;BME280;9591;52.742;13.650;2023-06-01T13:16:03;101064.13;;;24.28;45.13
18918;BME280;9591;52.742;13.650;2023-06-01T13:18:52;101054.94;;;24.19;45.50
18918;BME280;9591;52.742;13.650;2023-06-01T13:21:40;101050.03;;;24.13;43.54
18918;BME280;9591;52.742;13.650;2023-06-01T13:24:27;101049.25;;;24.22;46.43
18918;BME280;9591;52.742;13.650;2023-06-01T13:27:28;101047.97;;;24.37;45.60
18918;BME280;9591;52.742;13.650;2023-06-01T13:30:15;101052.19;;;24.30;45.81
18918;BME280;9591;52.742;13.650;2023-06-01T13:33:03;101051.28;;;24.41;47.38
18918;BME280;9591;52.742;13.650;2023-06-01T13:35:50;101047.78;;;24.50;45.20
18918;BME280;9591;52.742;13.650;2023-06-01T13:38:38;101048.66;;;24.50;46.13
18918;BME280;9591;52.742;13.650;2023-06-01T13:41:25;101048.25;;;24.55;44.57
18918;BME280;9591;52.742;13.650;2023-06-01T13:44:14;101047.72;;;24.61;45.86
18918;BME280;9591;52.742;13.650;2023-06-01T13:47:03;101041.59;;;24.59;45.94
18918;BME280;9591;52.742;13.650;2023-06-01T13:49:49;101037.28;;;24.36;46.28
18918;BME280;9591;52.742;13.650;2023-06-01T13:52:36;101037.31;;;24.25;46.02
18918;BME280;9591;52.742;13.650;2023-06-01T13:55:24;101037.28;;;24.36;44.71
18918;BME280;9591;52.742;13.650;2023-06-01T13:58:13;101032.84;;;24.35;43.19
18918;BME280;9591;52.742;13.650;2023-06-01T14:01:00;101037.81;;;24.50;45.97
18918;BME280;9591;52.742;13.650;2023-06-01T14:03:47;101037.00;;;24.39;45.61
18918;BME280;9591;52.742;13.650;2023-06-01T14:06:34;101035.91;;;24.62;44.56
18918;BME280;9591;52.742;13.650;2023-06-01T14:09:21;101035.38;;;24.68;43.25
18918;BME280;9591;52.742;13.650;2023-06-01T14:12:10;101025.72;;;24.75;45.51
18918;BME280;9591;52.742;13.650;2023-06-01T14:14:56;101025.53;;;24.67;44.22
18918;BME280;9591;52.742;13.650;2023-06-01T14:17:43;101021.44;;;24.31;45.17
18918;BME280;9591;52.742;13.650;2023-06-01T14:20:30;101020.91;;;24.58;45.88
18918;BME280;9591;52.742;13.650;2023-06-01T14:23:18;101018.31;;;24.36;43.82
18918;BME280;9591;52.742;13.650;2023-06-01T14:26:04;101014.84;;;24.45;44.25
18918;BME280;9591;52.742;13.650;2023-06-01T14:28:52;101012.25;;;24.64;42.72
18918;BME280;9591;52.742;13.650;2023-06-01T14:31:39;101007.75;;;24.74;43.08
18918;BME280;9591;52.742;13.650;2023-06-01T14:34:27;101011.38;;;24.84;42.15
18918;BME280;9591;52.742;13.650;2023-06-01T14:37:14;101001.34;;;24.75;43.34
18918;BME280;9591;52.742;13.650;2023-06-01T14:40:01;101000.94;;;24.80;43.77